MSC Vienna — A8CI9 — position and weather

sailwx.info

Track history (hours):
 
Tides and Currents Weather Stations Pressure Air Temp Water Temp Dewpoint Dewpoint Depression Visibility Wind Speed Wind Dir Waves Ship Positions

MSC Vienna

Last reported at 2017-Jan-21 14:31 UTC. Time now 2017-Jan-21 15:35 UTC.
Position N 43°35' E 010°18'.

Length 260.1 m; beam 32.2 m; draft 12 m.

Type: Ship (hazmat cat A). MMSI: 636090654.

Date/timePositionNaut miles runAvg speedWind from/ knotsBaromVisibWave heightAir tempDewpointWater temp
2017-Jan-21 14:31N 43°35' E 010°18'0 0.0
2017-Jan-21 13:31N 43°35' E 010°18'0 0.0
2017-Jan-21 12:31N 43°35' E 010°18'0 0.0
2017-Jan-21 11:28N 43°35' E 010°18'0 0.0
2017-Jan-21 10:28N 43°35' E 010°18'0 0.0
2017-Jan-21 09:31N 43°35' E 010°18'0 0.0
2017-Jan-21 08:31N 43°35' E 010°18'0 0.0
2017-Jan-21 07:31N 43°35' E 010°18'0 0.5
2017-Jan-21 06:33N 43°34' E 010°19'7 6.7
2017-Jan-21 05:34N 43°28' E 010°15'2 1.9
2017-Jan-21 04:34N 43°27' E 010°12'1515.2
2017-Jan-21 03:33N 43°12' E 010°08'1816.1
2017-Jan-21 02:26N 42°55' E 010°02'23615.8
2017-Jan-20 11:30N 39°01' E 009°23'1515.8
2017-Jan-20 10:32N 39°09' E 009°06'5 4.8
2017-Jan-20 09:32N 39°13' E 009°04'0 0.0
2017-Jan-20 08:32N 39°13' E 009°04'0 0.0
2017-Jan-20 07:32N 39°13' E 009°04'0 0.0
2017-Jan-20 06:32N 39°13' E 009°04'0 0.0
2017-Jan-20 05:32N 39°13' E 009°04'0 0.0
2017-Jan-20 04:32N 39°13' E 009°04'0 0.0
2017-Jan-20 03:32N 39°13' E 009°04'0 0.0
2017-Jan-20 02:32N 39°13' E 009°04'0 0.0
2017-Jan-20 01:32N 39°13' E 009°04'0 0.0
2017-Jan-20 00:32N 39°13' E 009°04'0 0.0
2017-Jan-19 23:32N 39°13' E 009°04'0 0.0
2017-Jan-19 22:32N 39°13' E 009°04'0 0.0
2017-Jan-19 21:29N 39°13' E 009°04'0 0.0
2017-Jan-19 20:32N 39°13' E 009°04'0 0.0
2017-Jan-19 19:32N 39°13' E 009°04'0 0.0
2017-Jan-19 18:32N 39°13' E 009°04'0 0.0
2017-Jan-19 17:32N 39°13' E 009°04'7 7.5
2017-Jan-19 16:32N 39°06' E 009°07'1716.8
2017-Jan-19 15:33N 38°50' E 009°00'1716.8
2017-Jan-19 14:33N 38°40' E 008°43'25618.3
2017-Jan-19 00:33N 38°57' E 003°16'1817.5
2017-Jan-18 23:31N 38°59' E 002°52'1718.2
2017-Jan-18 22:33N 39°00' E 002°30'1918.6
2017-Jan-18 21:33N 39°06' E 002°07'1918.8
2017-Jan-18 20:33N 39°11' E 001°44'1918.1
2017-Jan-18 19:32N 39°16' E 001°21'7218.0
2017-Jan-18 15:32N 39°25' W 000°11'7 6.7
2017-Jan-18 14:33N 39°27' W 000°19'0 0.0
2017-Jan-18 13:21N 39°27' W 000°19'0 0.0
2017-Jan-18 12:33N 39°27' W 000°19'0 0.0
2017-Jan-18 11:33N 39°27' W 000°19'0 0.0
2017-Jan-18 10:33N 39°27' W 000°19'0 0.0
2017-Jan-18 09:33N 39°27' W 000°19'0 0.0
2017-Jan-18 08:33N 39°27' W 000°19'0 0.0
2017-Jan-18 07:24N 39°27' W 000°19'0 0.0
2017-Jan-18 06:15N 39°27' W 000°19'0 0.0
2017-Jan-18 05:33N 39°27' W 000°19'0 0.0
2017-Jan-18 04:33N 39°27' W 000°19'0 0.0
2017-Jan-18 03:33N 39°27' W 000°19'0 0.0
2017-Jan-18 02:33N 39°27' W 000°19'0 0.0
2017-Jan-17 18:15N 39°27' W 000°19'2 3.4
2017-Jan-17 17:33N 39°25' W 000°17'10112.3
2017-Jan-17 09:19N 37°45' W 000°21'1215.5
2017-Jan-17 08:33N 37°35' W 000°30'1616.0
2017-Jan-17 07:33N 37°24' W 000°44'1615.9
2017-Jan-17 06:33N 37°13' W 000°59'21616.4
2017-Jan-16 17:24N 36°00' W 005°12'  
2017-Jan-13 02:33N 38°00' W 023°52'1514.8
2017-Jan-13 01:33N 38°01' W 024°11'1514.7
2017-Jan-13 00:33N 38°02' W 024°30'1514.9
2017-Jan-12 23:34N 38°03' W 024°49'1515.1
2017-Jan-12 22:34N 38°04' W 025°08'1515.4
2017-Jan-12 21:33N 38°04' W 025°27'1515.3
2017-Jan-12 20:34N 38°05' W 025°47'1515.2
2017-Jan-12 19:34N 38°06' W 026°06'1514.7
2017-Jan-12 18:33N 38°06' W 026°25'1514.9
2017-Jan-12 17:34N 38°07' W 026°43'1515.0
2017-Jan-12 16:33N 38°07' W 027°03'3415.5
2017-Jan-12 14:23N 38°08' W 027°45'1215.2
2017-Jan-12 13:33N 38°08' W 028°01'1515.0
2017-Jan-12 12:33N 38°08' W 028°20'1515.2
2017-Jan-12 11:33N 38°09' W 028°40'1515.2
2017-Jan-12 10:33N 38°09' W 028°59'1515.1
2017-Jan-12 09:33N 38°09' W 029°18'1515.4
2017-Jan-12 08:33N 38°09' W 029°38'1515.3
2017-Jan-12 07:34N 38°09' W 029°57'1515.2
2017-Jan-12 06:33N 38°09' W 030°17'  
Track history (hours):
 
Tides and Currents Weather Stations Pressure Air Temp Water Temp Dewpoint Dewpoint Depression Visibility Wind Speed Wind Dir Waves Ship Positions

MSC Vienna

Last reported at 2017-Jan-21 14:31 UTC. Time now 2017-Jan-21 15:35 UTC.
Position N 43°35' E 010°18'.

Length 260.1 m; beam 32.2 m; draft 12 m.

Type: Ship (hazmat cat A). MMSI: 636090654.

Date/timePositionNaut miles runAvg speedWind from/ knotsBaromVisibWave heightAir tempDewpointWater temp
2017-Jan-21 14:31N 43°35' E 010°18'0 0.0
2017-Jan-21 13:31N 43°35' E 010°18'0 0.0
2017-Jan-21 12:31N 43°35' E 010°18'0 0.0
2017-Jan-21 11:28N 43°35' E 010°18'0 0.0
2017-Jan-21 10:28N 43°35' E 010°18'0 0.0
2017-Jan-21 09:31N 43°35' E 010°18'0 0.0
2017-Jan-21 08:31N 43°35' E 010°18'0 0.0
2017-Jan-21 07:31N 43°35' E 010°18'0 0.5
2017-Jan-21 06:33N 43°34' E 010°19'7 6.7
2017-Jan-21 05:34N 43°28' E 010°15'2 1.9
2017-Jan-21 04:34N 43°27' E 010°12'1515.2
2017-Jan-21 03:33N 43°12' E 010°08'1816.1
2017-Jan-21 02:26N 42°55' E 010°02'23615.8
2017-Jan-20 11:30N 39°01' E 009°23'1515.8
2017-Jan-20 10:32N 39°09' E 009°06'5 4.8
2017-Jan-20 09:32N 39°13' E 009°04'0 0.0
2017-Jan-20 08:32N 39°13' E 009°04'0 0.0
2017-Jan-20 07:32N 39°13' E 009°04'0 0.0
2017-Jan-20 06:32N 39°13' E 009°04'0 0.0
2017-Jan-20 05:32N 39°13' E 009°04'0 0.0
2017-Jan-20 04:32N 39°13' E 009°04'0 0.0
2017-Jan-20 03:32N 39°13' E 009°04'0 0.0
2017-Jan-20 02:32N 39°13' E 009°04'0 0.0
2017-Jan-20 01:32N 39°13' E 009°04'0 0.0
2017-Jan-20 00:32N 39°13' E 009°04'0 0.0
2017-Jan-19 23:32N 39°13' E 009°04'0 0.0
2017-Jan-19 22:32N 39°13' E 009°04'0 0.0
2017-Jan-19 21:29N 39°13' E 009°04'0 0.0
2017-Jan-19 20:32N 39°13' E 009°04'0 0.0
2017-Jan-19 19:32N 39°13' E 009°04'0 0.0
2017-Jan-19 18:32N 39°13' E 009°04'0 0.0
2017-Jan-19 17:32N 39°13' E 009°04'7 7.5
2017-Jan-19 16:32N 39°06' E 009°07'1716.8
2017-Jan-19 15:33N 38°50' E 009°00'1716.8
2017-Jan-19 14:33N 38°40' E 008°43'25618.3
2017-Jan-19 00:33N 38°57' E 003°16'1817.5
2017-Jan-18 23:31N 38°59' E 002°52'1718.2
2017-Jan-18 22:33N 39°00' E 002°30'1918.6
2017-Jan-18 21:33N 39°06' E 002°07'1918.8
2017-Jan-18 20:33N 39°11' E 001°44'1918.1
2017-Jan-18 19:32N 39°16' E 001°21'7218.0
2017-Jan-18 15:32N 39°25' W 000°11'7 6.7
2017-Jan-18 14:33N 39°27' W 000°19'0 0.0
2017-Jan-18 13:21N 39°27' W 000°19'0 0.0
2017-Jan-18 12:33N 39°27' W 000°19'0 0.0
2017-Jan-18 11:33N 39°27' W 000°19'0 0.0
2017-Jan-18 10:33N 39°27' W 000°19'0 0.0
2017-Jan-18 09:33N 39°27' W 000°19'0 0.0
2017-Jan-18 08:33N 39°27' W 000°19'0 0.0
2017-Jan-18 07:24N 39°27' W 000°19'0 0.0
2017-Jan-18 06:15N 39°27' W 000°19'0 0.0
2017-Jan-18 05:33N 39°27' W 000°19'0 0.0
2017-Jan-18 04:33N 39°27' W 000°19'0 0.0
2017-Jan-18 03:33N 39°27' W 000°19'0 0.0
2017-Jan-18 02:33N 39°27' W 000°19'0 0.0
2017-Jan-17 18:15N 39°27' W 000°19'2 3.4
2017-Jan-17 17:33N 39°25' W 000°17'10112.3
2017-Jan-17 09:19N 37°45' W 000°21'1215.5
2017-Jan-17 08:33N 37°35' W 000°30'1616.0
2017-Jan-17 07:33N 37°24' W 000°44'1615.9
2017-Jan-17 06:33N 37°13' W 000°59'21616.4
2017-Jan-16 17:24N 36°00' W 005°12'  
2017-Jan-13 02:33N 38°00' W 023°52'1514.8
2017-Jan-13 01:33N 38°01' W 024°11'1514.7
2017-Jan-13 00:33N 38°02' W 024°30'1514.9
2017-Jan-12 23:34N 38°03' W 024°49'1515.1
2017-Jan-12 22:34N 38°04' W 025°08'1515.4
2017-Jan-12 21:33N 38°04' W 025°27'1515.3
2017-Jan-12 20:34N 38°05' W 025°47'1515.2
2017-Jan-12 19:34N 38°06' W 026°06'1514.7
2017-Jan-12 18:33N 38°06' W 026°25'1514.9
2017-Jan-12 17:34N 38°07' W 026°43'1515.0
2017-Jan-12 16:33N 38°07' W 027°03'3415.5
2017-Jan-12 14:23N 38°08' W 027°45'1215.2
2017-Jan-12 13:33N 38°08' W 028°01'1515.0
2017-Jan-12 12:33N 38°08' W 028°20'1515.2
2017-Jan-12 11:33N 38°09' W 028°40'1515.2
2017-Jan-12 10:33N 38°09' W 028°59'1515.1
2017-Jan-12 09:33N 38°09' W 029°18'1515.4
2017-Jan-12 08:33N 38°09' W 029°38'1515.3
2017-Jan-12 07:34N 38°09' W 029°57'1515.2
2017-Jan-12 06:33N 38°09' W 030°17'  

Dump ship's entire track history